Time;durP1;ratioP1;P1;durP2;ratioP2;P2;SDS_P1;SDS_P2;PMS_P1;PMS_P2;Temp;Humidity;BMP_temperature;BMP_pressure;BME280_temperature;BME280_humidity;BME280_pressure;Samples;Min_cycle;Max_cycle;Signal;HPM_P1;HPM_P2
2023/09/15 00:00:25;;;;;;;6.90;3.50;;;15.60;70.90;;;;;;5104205;28;20452;-80
2023/09/15 00:03:00;;;;;;;7.30;3.27;;;15.60;70.90;;;;;;5106575;28;20463;-79
2023/09/15 00:05:29;;;;;;;7.90;4.00;;;15.50;71.00;;;;;;5101612;28;20467;-79
2023/09/15 00:07:58;;;;;;;7.53;3.33;;;15.50;71.10;;;;;;5088945;28;20537;-78
2023/09/15 00:10:27;;;;;;;8.13;3.47;;;15.50;71.20;;;;;;5104257;28;20444;-80
2023/09/15 00:13:07;;;;;;;10.77;3.70;;;15.50;71.20;;;;;;5107778;28;20490;-78
2023/09/15 00:15:35;;;;;;;7.23;3.20;;;15.50;71.10;;;;;;5090460;28;20850;-78
2023/09/15 00:18:04;;;;;;;7.70;3.50;;;15.40;71.00;;;;;;5088957;28;20463;-78
2023/09/15 00:20:32;;;;;;;7.23;3.47;;;15.40;71.10;;;;;;5106098;28;20993;-78
2023/09/15 00:23:00;;;;;;;6.43;3.30;;;15.30;71.20;;;;;;5104482;28;20450;-78
2023/09/15 00:25:30;;;;;;;7.73;3.57;;;15.40;71.20;;;;;;5104729;28;20474;-79
2023/09/15 00:28:00;;;;;;;6.80;3.30;;;15.30;71.20;;;;;;5106164;28;20460;-77
2023/09/15 00:30:29;;;;;;;6.67;3.13;;;15.30;71.20;;;;;;5103133;28;20471;-79
2023/09/15 00:33:22;;;;;;;8.17;3.50;;;15.30;71.30;;;;;;5102378;28;20453;-78
2023/09/15 00:35:51;;;;;;;7.50;3.20;;;15.30;71.30;;;;;;5082413;28;20495;-78
2023/09/15 00:38:20;;;;;;;8.23;3.60;;;15.30;71.20;;;;;;5089045;28;20911;-79
2023/09/15 00:40:50;;;;;;;6.47;3.37;;;15.20;71.30;;;;;;5088168;28;20457;-80
2023/09/15 00:43:18;;;;;;;7.80;4.17;;;15.20;71.30;;;;;;5108192;28;21099;-80
2023/09/15 00:45:55;;;;;;;7.50;3.80;;;15.20;71.40;;;;;;5090074;28;20479;-76
2023/09/15 00:51:07;;;;;;;6.60;3.30;;;15.20;71.50;;;;;;5088549;28;20999;-80
2023/09/15 00:53:38;;;;;;;8.00;3.70;;;15.20;71.60;;;;;;5107001;28;21005;-78
2023/09/15 00:56:34;;;;;;;7.57;3.83;;;15.20;71.60;;;;;;5084527;28;20455;-77
2023/09/15 00:59:03;;;;;;;7.30;3.03;;;15.30;71.60;;;;;;5104857;28;20452;-78
2023/09/15 01:01:32;;;;;;;7.20;3.40;;;15.20;71.50;;;;;;5097203;28;20468;-79
2023/09/15 01:04:00;;;;;;;9.17;3.80;;;15.20;71.40;;;;;;5086404;28;20463;-77
2023/09/15 01:06:29;;;;;;;6.80;3.30;;;15.10;71.30;;;;;;5088894;28;20562;-79
2023/09/15 01:08:57;;;;;;;7.43;3.10;;;15.00;71.30;;;;;;5087413;28;20459;-78
2023/09/15 01:11:27;;;;;;;7.60;3.77;;;15.00;71.30;;;;;;5103693;28;20453;-80
2023/09/15 01:13:55;;;;;;;6.33;3.37;;;15.00;71.40;;;;;;5106544;28;20447;-78
2023/09/15 01:16:49;;;;;;;8.87;3.30;;;15.00;71.40;;;;;;5103136;28;20437;-75
2023/09/15 01:19:38;;;;;;;7.60;4.07;;;15.00;71.50;;;;;;5088963;28;20936;-78
2023/09/15 01:22:44;;;;;;;8.87;4.27;;;15.00;71.40;;;;;;5103348;28;20451;-80
2023/09/15 01:25:48;;;;;;;6.80;3.77;;;15.00;71.30;;;;;;5092685;28;20463;-79
2023/09/15 01:28:46;;;;;;;9.17;4.30;;;14.90;71.30;;;;;;5101687;28;20453;-77
2023/09/15 01:31:18;;;;;;;7.50;3.60;;;14.90;71.50;;;;;;5103337;28;21238;-78
2023/09/15 01:33:47;;;;;;;8.17;3.77;;;14.80;71.60;;;;;;5086955;28;20550;-79
2023/09/15 01:36:31;;;;;;;8.13;3.70;;;14.80;71.60;;;;;;5099942;28;20457;-78
2023/09/15 01:39:14;;;;;;;8.67;4.27;;;14.80;71.80;;;;;;5101467;28;20462;-80
2023/09/15 01:41:43;;;;;;;6.80;3.40;;;14.70;71.90;;;;;;5098270;28;20455;-77
2023/09/15 01:44:12;;;;;;;7.03;3.37;;;14.70;71.90;;;;;;5086032;28;20555;-78
2023/09/15 01:46:41;;;;;;;7.93;3.63;;;14.70;71.90;;;;;;5100798;28;20482;-79
2023/09/15 01:49:10;;;;;;;8.07;3.47;;;14.70;72.00;;;;;;5108037;28;20447;-79
2023/09/15 01:51:39;;;;;;;8.13;3.80;;;14.70;72.20;;;;;;5104991;28;20551;-79
2023/09/15 01:54:08;;;;;;;7.57;3.97;;;14.70;72.30;;;;;;5085033;28;20555;-77
2023/09/15 01:56:37;;;;;;;8.10;3.73;;;14.80;72.20;;;;;;5087120;28;20447;-80
2023/09/15 01:59:05;;;;;;;6.90;3.60;;;14.80;72.00;;;;;;5101087;28;20886;-80
2023/09/15 02:01:33;;;;;;;7.70;3.50;;;14.70;71.90;;;;;;5087578;28;20554;-79
2023/09/15 02:04:03;;;;;;;7.63;3.73;;;14.70;71.80;;;;;;5089008;28;20546;-78
2023/09/15 02:06:32;;;;;;;8.47;3.67;;;14.60;71.80;;;;;;5096828;28;20914;-79
2023/09/15 02:09:00;;;;;;;7.60;3.83;;;14.60;71.90;;;;;;5110307;28;20811;-78
2023/09/15 02:14:10;;;;;;;8.23;3.70;;;14.50;72.00;;;;;;5087441;28;20976;-75
2023/09/15 02:16:39;;;;;;;10.33;3.77;;;14.50;72.10;;;;;;5103016;28;20557;-79
2023/09/15 02:19:09;;;;;;;7.47;3.83;;;14.50;72.20;;;;;;5108041;28;20527;-79
2023/09/15 02:21:38;;;;;;;6.63;2.80;;;14.50;72.30;;;;;;5107855;27;20560;-77
2023/09/15 02:24:07;;;;;;;11.53;4.30;;;14.50;72.30;;;;;;5107733;28;20466;-77
2023/09/15 02:26:34;;;;;;;8.53;4.43;;;14.50;72.40;;;;;;5108032;28;20489;-78
2023/09/15 02:29:03;;;;;;;8.47;3.67;;;14.50;72.50;;;;;;5104986;28;20492;-78
2023/09/15 02:31:32;;;;;;;10.87;4.53;;;14.50;72.40;;;;;;5107652;28;20477;-78
2023/09/15 02:34:00;;;;;;;8.00;4.00;;;14.50;72.30;;;;;;5108772;28;20510;-77
2023/09/15 02:36:29;;;;;;;8.23;3.97;;;14.40;72.20;;;;;;5108074;28;20466;-79
2023/09/15 02:38:58;;;;;;;10.17;4.27;;;14.40;72.20;;;;;;5095251;28;20460;-79
2023/09/15 02:41:28;;;;;;;6.60;3.30;;;14.30;72.30;;;;;;5090812;28;20465;-80
2023/09/15 02:43:57;;;;;;;11.00;4.47;;;14.30;72.40;;;;;;5092522;28;21152;-79
2023/09/15 02:49:17;;;;;;;7.60;3.70;;;14.20;72.40;;;;;;5090273;28;20522;-78
2023/09/15 02:51:46;;;;;;;9.77;4.10;;;14.20;72.60;;;;;;5089479;28;20482;-78
2023/09/15 02:54:14;;;;;;;7.73;4.10;;;14.30;72.70;;;;;;5106360;28;20545;-79
2023/09/15 02:56:43;;;;;;;7.70;4.07;;;14.20;72.60;;;;;;5090641;28;20470;-75
2023/09/15 02:59:11;;;;;;;9.57;4.00;;;14.20;72.60;;;;;;5106297;28;20541;-78
2023/09/15 03:01:39;;;;;;;8.10;3.63;;;14.20;72.70;;;;;;5089845;28;20939;-78
2023/09/15 03:04:08;;;;;;;7.57;3.90;;;14.20;72.70;;;;;;5085836;28;20480;-78
2023/09/15 03:06:36;;;;;;;8.97;3.70;;;14.20;72.70;;;;;;5091486;28;20467;-80
2023/09/15 03:09:07;;;;;;;8.80;3.80;;;14.20;72.90;;;;;;5104491;28;20477;-77
2023/09/15 03:11:35;;;;;;;6.50;3.40;;;14.20;73.10;;;;;;5107380;28;20496;-78
2023/09/15 03:14:09;;;;;;;7.37;3.07;;;14.20;73.10;;;;;;5103023;28;20451;-79
2023/09/15 03:16:37;;;;;;;7.80;3.97;;;14.30;73.20;;;;;;5091546;28;20558;-80
2023/09/15 03:19:42;;;;;;;10.33;3.30;;;14.30;73.20;;;;;;5107578;28;20568;-78
2023/09/15 03:23:00;;;;;;;10.57;3.43;;;14.30;73.20;;;;;;5088864;28;20489;-77
2023/09/15 03:25:30;;;;;;;7.00;3.60;;;14.30;73.00;;;;;;5086634;28;20451;-77
2023/09/15 03:27:58;;;;;;;8.40;4.57;;;14.30;72.90;;;;;;5108515;28;20493;-79
2023/09/15 03:30:26;;;;;;;8.27;4.40;;;14.30;73.00;;;;;;5089942;28;20578;-79
2023/09/15 03:32:54;;;;;;;8.00;4.10;;;14.20;73.00;;;;;;5090977;28;21008;-77
2023/09/15 03:35:23;;;;;;;7.17;4.07;;;14.20;73.00;;;;;;5089989;28;20468;-78
2023/09/15 03:37:58;;;;;;;7.40;4.10;;;14.20;73.10;;;;;;5108216;28;20452;-77
2023/09/15 03:40:26;;;;;;;7.70;3.73;;;14.20;73.20;;;;;;5109069;28;20458;-80
2023/09/15 03:42:55;;;;;;;7.40;3.93;;;14.20;73.10;;;;;;5088924;28;21180;-79
2023/09/15 03:45:24;;;;;;;9.90;4.90;;;14.20;73.20;;;;;;5109384;28;20940;-78
2023/09/15 03:47:52;;;;;;;7.50;3.77;;;14.10;73.30;;;;;;5091854;28;20475;-79
2023/09/15 03:50:21;;;;;;;7.40;3.60;;;14.20;73.40;;;;;;5089885;28;20448;-78
2023/09/15 03:52:56;;;;;;;8.83;4.10;;;14.20;73.40;;;;;;5089231;28;20476;-80
2023/09/15 03:55:29;;;;;;;11.03;4.30;;;14.20;73.40;;;;;;5103396;28;20537;-80
2023/09/15 03:58:07;;;;;;;8.90;4.10;;;14.20;73.30;;;;;;5107211;28;20469;-79
2023/09/15 04:00:36;;;;;;;9.23;4.30;;;14.20;73.10;;;;;;5103019;28;20972;-78
2023/09/15 04:03:04;;;;;;;6.27;3.53;;;14.10;73.10;;;;;;5089744;28;20554;-79
2023/09/15 04:05:33;;;;;;;9.00;4.57;;;14.10;73.10;;;;;;5079995;28;20456;-78
2023/09/15 04:08:02;;;;;;;12.10;3.60;;;14.10;73.20;;;;;;5087124;28;20482;-77
2023/09/15 04:10:30;;;;;;;7.80;3.63;;;14.10;73.20;;;;;;5108480;28;20550;-78
2023/09/15 04:13:00;;;;;;;8.00;3.70;;;14.10;73.20;;;;;;5106047;28;20484;-78
2023/09/15 04:15:29;;;;;;;7.50;4.30;;;14.20;73.20;;;;;;5106522;28;20511;-75
2023/09/15 04:17:57;;;;;;;9.33;4.13;;;14.20;73.20;;;;;;5090277;28;20461;-80
2023/09/15 04:20:28;;;;;;;8.83;3.90;;;14.20;73.20;;;;;;5087219;28;20551;-79
2023/09/15 04:23:21;;;;;;;9.13;4.20;;;14.20;73.20;;;;;;5088462;28;20475;-77
2023/09/15 04:25:49;;;;;;;9.80;4.57;;;14.20;73.10;;;;;;5106180;28;20466;-78
2023/09/15 04:28:18;;;;;;;10.27;4.50;;;14.20;73.10;;;;;;5090523;28;20531;-79
2023/09/15 04:30:46;;;;;;;8.17;4.63;;;14.20;73.10;;;;;;5088099;28;20460;-80
2023/09/15 04:33:53;;;;;;;10.87;4.73;;;14.20;73.00;;;;;;5085721;28;20878;-79
2023/09/15 04:36:22;;;;;;;7.90;4.30;;;14.10;73.00;;;;;;5106670;28;20481;-80
2023/09/15 04:38:50;;;;;;;10.10;4.57;;;14.00;73.00;;;;;;5102771;28;20447;-79
2023/09/15 04:41:18;;;;;;;11.67;4.37;;;14.00;73.10;;;;;;5089337;28;20949;-80
2023/09/15 04:44:15;;;;;;;9.40;4.97;;;14.00;73.20;;;;;;5088851;28;20470;-81
2023/09/15 04:46:45;;;;;;;11.93;5.10;;;14.00;73.20;;;;;;5084834;28;20446;-77
2023/09/15 04:49:13;;;;;;;11.23;4.40;;;13.90;73.20;;;;;;5106246;28;20482;-77
2023/09/15 04:52:03;;;;;;;10.80;5.23;;;13.90;73.30;;;;;;5090352;28;20456;-79
2023/09/15 04:54:31;;;;;;;8.00;4.70;;;13.90;73.50;;;;;;5082962;28;20949;-80
2023/09/15 04:57:01;;;;;;;12.23;5.00;;;13.90;73.40;;;;;;5090411;28;21302;-78
2023/09/15 04:59:31;;;;;;;8.63;4.63;;;13.90;73.40;;;;;;5103946;28;20452;-78
2023/09/15 05:02:01;;;;;;;9.87;4.90;;;13.90;73.50;;;;;;5089225;28;20479;-78
2023/09/15 05:04:29;;;;;;;9.57;5.47;;;13.90;73.60;;;;;;5102196;28;20460;-78
2023/09/15 05:06:58;;;;;;;11.30;6.27;;;13.90;73.60;;;;;;5105905;28;21145;-78
2023/09/15 05:09:26;;;;;;;10.97;5.20;;;13.90;73.50;;;;;;5089470;28;21000;-80
2023/09/15 05:11:55;;;;;;;10.00;4.90;;;13.90;73.40;;;;;;5087418;28;21123;-79
2023/09/15 05:14:23;;;;;;;18.40;5.60;;;13.90;73.40;;;;;;5088699;28;20460;-79
2023/09/15 05:16:54;;;;;;;9.83;5.10;;;13.90;73.40;;;;;;5107701;28;20919;-78
2023/09/15 05:19:22;;;;;;;14.10;5.97;;;13.90;73.40;;;;;;5101040;28;21109;-77
2023/09/15 05:21:51;;;;;;;12.00;6.40;;;13.90;73.40;;;;;;5088374;28;20457;-78
2023/09/15 05:24:19;;;;;;;13.37;6.43;;;13.80;73.40;;;;;;5107589;28;20441;-78
2023/09/15 05:26:47;;;;;;;11.93;6.27;;;13.80;73.40;;;;;;5088312;28;20505;-78
2023/09/15 05:31:59;;;;;;;12.30;7.40;;;13.70;73.70;;;;;;5099228;28;20485;-79
2023/09/15 05:34:27;;;;;;;10.83;6.40;;;13.70;73.80;;;;;;5100075;28;20541;-78
2023/09/15 05:36:55;;;;;;;12.40;6.73;;;13.70;74.00;;;;;;5099023;28;20918;-76
2023/09/15 05:39:23;;;;;;;11.60;7.00;;;13.70;74.10;;;;;;5093282;28;20454;-77
2023/09/15 05:41:52;;;;;;;11.80;6.37;;;13.80;74.10;;;;;;5102168;28;20543;-76
2023/09/15 05:44:20;;;;;;;10.30;5.60;;;13.90;74.20;;;;;;5110921;28;20450;-79
2023/09/15 05:46:48;;;;;;;10.63;6.37;;;13.90;74.10;;;;;;5092710;28;20450;-79
2023/09/15 05:49:31;;;;;;;15.40;8.10;;;14.00;74.00;;;;;;5104433;28;20565;-78
2023/09/15 05:51:59;;;;;;;12.93;7.30;;;14.00;74.00;;;;;;5107998;28;20978;-81
2023/09/15 05:54:27;;;;;;;12.90;7.70;;;14.00;74.10;;;;;;5109601;28;20548;-78
2023/09/15 05:56:55;;;;;;;10.97;7.00;;;14.10;74.10;;;;;;5107676;28;21068;-79
2023/09/15 05:59:23;;;;;;;11.13;7.60;;;14.10;74.20;;;;;;5106910;28;20999;-78
2023/09/15 06:01:51;;;;;;;13.40;7.90;;;14.10;74.20;;;;;;5109059;28;20495;-80
2023/09/15 06:04:19;;;;;;;12.67;8.00;;;14.10;74.30;;;;;;5101929;28;20545;-81
2023/09/15 06:06:48;;;;;;;16.93;7.57;;;14.20;74.40;;;;;;5109480;28;20458;-78
2023/09/15 06:09:16;;;;;;;14.43;7.53;;;14.20;74.60;;;;;;5104274;28;20483;-80
2023/09/15 06:11:44;;;;;;;12.13;7.50;;;14.30;74.70;;;;;;5099721;28;20665;-80
2023/09/15 06:14:12;;;;;;;13.40;7.53;;;14.40;74.70;;;;;;5109662;28;20462;-80
2023/09/15 06:16:40;;;;;;;12.97;7.93;;;14.40;74.60;;;;;;5093149;28;20447;-79
2023/09/15 06:19:08;;;;;;;14.40;7.37;;;14.50;74.70;;;;;;5111715;28;20462;-78
2023/09/15 06:21:36;;;;;;;11.83;7.63;;;14.50;74.70;;;;;;5110515;28;20466;-79
2023/09/15 06:24:06;;;;;;;13.77;7.70;;;14.60;74.80;;;;;;5091370;28;20450;-80
2023/09/15 06:26:36;;;;;;;16.70;8.37;;;14.60;74.90;;;;;;5101530;28;20968;-80
2023/09/15 06:29:04;;;;;;;15.47;9.63;;;14.60;75.10;;;;;;5104894;28;21315;-78
2023/09/15 06:31:32;;;;;;;15.60;10.90;;;14.70;75.20;;;;;;5101503;28;20505;-78
2023/09/15 06:34:00;;;;;;;15.50;11.27;;;14.80;75.30;;;;;;5102322;28;20455;-79
2023/09/15 06:36:28;;;;;;;15.53;10.43;;;14.80;75.40;;;;;;5087894;28;20834;-78
2023/09/15 06:38:57;;;;;;;17.10;12.07;;;14.90;75.50;;;;;;5108430;28;20444;-79
2023/09/15 06:41:26;;;;;;;16.00;11.50;;;14.90;75.70;;;;;;5113372;28;20462;-79
2023/09/15 06:43:54;;;;;;;19.60;12.60;;;15.00;75.80;;;;;;5108895;28;20454;-80
2023/09/15 06:46:23;;;;;;;19.80;13.80;;;15.00;75.90;;;;;;5109514;28;20439;-78
2023/09/15 06:48:51;;;;;;;21.77;15.53;;;15.10;76.10;;;;;;5107941;28;20493;-78
2023/09/15 06:51:19;;;;;;;20.17;13.97;;;15.20;76.20;;;;;;5109225;28;20443;-78
2023/09/15 06:53:47;;;;;;;21.57;14.53;;;15.20;76.30;;;;;;5091724;28;20458;-78
2023/09/15 06:56:15;;;;;;;20.40;14.23;;;15.30;76.50;;;;;;5107579;28;20455;-79
2023/09/15 06:58:46;;;;;;;17.33;13.47;;;15.30;76.50;;;;;;5092385;28;20444;-79
2023/09/15 07:01:14;;;;;;;21.63;14.67;;;15.30;76.50;;;;;;5107147;28;20490;-80
2023/09/15 07:03:42;;;;;;;19.43;12.90;;;15.40;76.60;;;;;;5106759;28;20456;-78
2023/09/15 07:06:10;;;;;;;18.93;13.30;;;15.40;76.80;;;;;;5106358;28;21020;-80
2023/09/15 07:08:38;;;;;;;20.27;14.07;;;15.40;76.80;;;;;;5106328;28;20815;-78
2023/09/15 07:11:06;;;;;;;19.57;13.63;;;15.50;76.90;;;;;;5089904;28;20480;-78
2023/09/15 07:13:34;;;;;;;19.03;13.40;;;15.50;77.00;;;;;;5107184;28;20443;-78
2023/09/15 07:16:04;;;;;;;21.27;14.90;;;15.60;77.10;;;;;;5106046;28;20439;-79
2023/09/15 07:18:32;;;;;;;19.00;14.07;;;15.60;77.20;;;;;;5108671;28;20463;-78
2023/09/15 07:21:00;;;;;;;21.80;14.00;;;15.70;77.10;;;;;;5106188;28;20468;-79
2023/09/15 07:23:28;;;;;;;18.27;13.60;;;15.70;77.30;;;;;;5108199;28;20451;-78
2023/09/15 07:25:56;;;;;;;21.13;14.60;;;15.80;77.30;;;;;;5106801;28;20452;-79
2023/09/15 07:28:23;;;;;;;23.20;14.90;;;15.80;77.30;;;;;;5106976;28;20471;-81
2023/09/15 07:30:52;;;;;;;18.70;13.47;;;15.90;77.40;;;;;;5107366;28;20483;-80
2023/09/15 07:33:21;;;;;;;19.77;14.97;;;15.90;77.50;;;;;;5109071;28;20454;-80
2023/09/15 07:35:50;;;;;;;20.43;13.10;;;15.90;77.60;;;;;;5106680;28;20463;-78
2023/09/15 07:38:18;;;;;;;20.30;14.47;;;16.00;77.60;;;;;;5086404;28;20459;-80
2023/09/15 07:40:46;;;;;;;18.53;13.20;;;16.00;77.60;;;;;;5105801;28;20462;-80
2023/09/15 07:43:14;;;;;;;17.87;13.80;;;16.00;77.70;;;;;;5100835;28;20474;-80
2023/09/15 07:45:42;;;;;;;22.50;13.97;;;16.10;77.90;;;;;;5107395;28;20498;-79
2023/09/15 07:48:12;;;;;;;16.43;12.30;;;16.10;78.10;;;;;;5106864;28;20508;-79
2023/09/15 07:50:41;;;;;;;17.17;12.03;;;16.10;78.10;;;;;;5106105;28;20472;-79
2023/09/15 07:53:09;;;;;;;14.53;11.23;;;16.20;78.20;;;;;;5107311;28;20965;-80
2023/09/15 07:55:37;;;;;;;16.47;11.10;;;16.30;78.20;;;;;;5095988;28;20448;-80
2023/09/15 07:58:06;;;;;;;18.10;11.63;;;16.30;78.20;;;;;;5111906;28;20460;-79
2023/09/15 08:00:34;;;;;;;14.83;11.50;;;16.40;78.30;;;;;;5113805;28;20976;-79
2023/09/15 08:03:02;;;;;;;18.73;12.70;;;16.50;78.20;;;;;;5104997;28;20828;-79
2023/09/15 08:05:30;;;;;;;15.83;11.80;;;16.50;78.30;;;;;;5106049;28;20459;-78
2023/09/15 08:08:00;;;;;;;17.13;12.47;;;16.60;78.40;;;;;;5086093;28;20790;-79
2023/09/15 08:10:29;;;;;;;19.20;11.47;;;16.60;78.40;;;;;;5104938;28;20507;-80
2023/09/15 08:12:57;;;;;;;14.23;10.70;;;16.70;78.50;;;;;;5106327;28;20444;-79
2023/09/15 08:15:25;;;;;;;14.53;10.80;;;16.70;78.50;;;;;;5104668;28;20512;-81
2023/09/15 08:17:53;;;;;;;17.90;12.23;;;16.80;78.40;;;;;;5101250;28;20447;-78
2023/09/15 08:20:25;;;;;;;20.83;13.33;;;16.80;78.30;;;;;;5090722;28;20973;-79
2023/09/15 08:22:53;;;;;;;20.27;11.90;;;16.90;78.40;;;;;;5106642;28;20447;-78
2023/09/15 08:25:22;;;;;;;15.00;11.97;;;16.90;78.40;;;;;;5105737;28;20543;-80
2023/09/15 08:27:50;;;;;;;16.90;12.60;;;17.00;78.40;;;;;;5103567;28;20452;-81
2023/09/15 08:30:22;;;;;;;18.83;12.10;;;17.00;78.40;;;;;;5102990;28;20464;-79
2023/09/15 08:32:50;;;;;;;17.20;11.80;;;17.00;78.50;;;;;;5105879;28;20443;-78
2023/09/15 08:35:18;;;;;;;16.60;12.10;;;17.10;78.60;;;;;;5106964;28;21109;-78
2023/09/15 08:37:46;;;;;;;18.40;12.30;;;17.10;78.70;;;;;;5106869;28;20453;-79
2023/09/15 08:40:14;;;;;;;22.03;11.90;;;17.10;78.80;;;;;;5104003;28;20447;-80
2023/09/15 08:42:44;;;;;;;16.20;11.30;;;17.20;78.80;;;;;;5104957;28;20472;-80
2023/09/15 08:45:13;;;;;;;17.93;11.13;;;17.30;78.70;;;;;;5101422;28;20450;-79
2023/09/15 08:47:44;;;;;;;13.17;10.33;;;17.30;78.70;;;;;;5105733;28;20521;-78
2023/09/15 08:50:14;;;;;;;15.43;9.90;;;17.40;78.60;;;;;;5105947;28;20529;-79
2023/09/15 08:52:43;;;;;;;13.90;9.20;;;17.50;78.70;;;;;;5108854;28;20455;-80
2023/09/15 08:55:11;;;;;;;15.50;9.90;;;17.50;78.60;;;;;;5104266;28;20452;-81
2023/09/15 08:57:40;;;;;;;17.00;9.00;;;17.60;78.60;;;;;;5105948;28;20533;-79
2023/09/15 09:00:12;;;;;;;14.20;10.80;;;17.70;78.50;;;;;;5105428;28;20456;-79
2023/09/15 09:02:41;;;;;;;15.17;10.77;;;17.70;78.50;;;;;;5092725;28;20460;-81
2023/09/15 09:05:09;;;;;;;13.57;9.53;;;17.80;78.40;;;;;;5102931;28;20452;-79
2023/09/15 09:07:38;;;;;;;17.33;10.27;;;17.90;78.50;;;;;;5104134;28;20448;-81
2023/09/15 09:10:07;;;;;;;16.93;10.30;;;17.90;78.30;;;;;;5101885;28;21103;-78
2023/09/15 09:12:35;;;;;;;17.73;9.63;;;18.00;78.20;;;;;;5107731;28;20455;-78
2023/09/15 09:15:03;;;;;;;13.47;9.63;;;18.00;78.10;;;;;;5107844;28;20443;-80
2023/09/15 09:17:33;;;;;;;14.90;10.63;;;18.10;78.00;;;;;;5094247;28;20455;-79
2023/09/15 09:20:00;;;;;;;13.47;10.10;;;18.10;78.00;;;;;;5109639;28;20873;-79
2023/09/15 09:22:28;;;;;;;15.73;9.47;;;18.20;78.00;;;;;;5101485;28;20982;-79
2023/09/15 09:24:57;;;;;;;14.20;9.63;;;18.20;77.90;;;;;;5106125;28;20455;-80
2023/09/15 09:27:32;;;;;;;13.30;8.97;;;18.30;77.70;;;;;;5090931;28;20452;-81
2023/09/15 09:30:00;;;;;;;17.70;9.43;;;18.40;77.60;;;;;;5111205;28;20453;-80
2023/09/15 09:32:29;;;;;;;19.40;10.73;;;18.40;77.60;;;;;;5110531;28;20976;-78
2023/09/15 09:34:58;;;;;;;12.37;8.50;;;18.40;77.60;;;;;;5091764;28;20448;-79
2023/09/15 09:37:27;;;;;;;13.43;9.80;;;18.50;77.60;;;;;;5091103;28;20456;-80
2023/09/15 09:39:55;;;;;;;15.27;9.90;;;18.60;77.40;;;;;;5107980;28;20475;-78
2023/09/15 09:42:24;;;;;;;14.13;9.40;;;18.70;77.30;;;;;;5090964;28;20521;-80
2023/09/15 09:44:53;;;;;;;15.50;9.27;;;18.70;77.30;;;;;;5107491;28;20528;-78
2023/09/15 09:47:22;;;;;;;13.83;9.80;;;18.80;77.10;;;;;;5109723;28;20491;-79
2023/09/15 09:49:52;;;;;;;11.30;8.83;;;18.90;77.10;;;;;;5109745;28;20524;-79
2023/09/15 09:52:22;;;;;;;13.03;8.93;;;19.00;77.10;;;;;;5092844;28;20980;-78
2023/09/15 09:54:50;;;;;;;11.87;8.40;;;19.00;76.80;;;;;;5107920;28;20550;-79
2023/09/15 09:57:19;;;;;;;13.97;8.70;;;19.10;76.70;;;;;;5110874;28;20455;-79
2023/09/15 09:59:48;;;;;;;15.90;9.40;;;19.20;76.80;;;;;;5111520;28;20539;-80
2023/09/15 10:02:16;;;;;;;17.30;9.50;;;19.30;76.60;;;;;;5110070;28;20993;-80
2023/09/15 10:04:45;;;;;;;11.73;7.63;;;19.30;76.40;;;;;;5111810;28;20443;-79
2023/09/15 10:07:13;;;;;;;13.80;8.47;;;19.40;76.40;;;;;;5092549;28;20964;-79
2023/09/15 10:09:43;;;;;;;13.90;8.93;;;19.50;76.30;;;;;;5109249;28;20451;-80
2023/09/15 10:12:12;;;;;;;12.77;9.03;;;19.50;76.20;;;;;;5110202;28;20471;-79
2023/09/15 10:14:41;;;;;;;14.20;9.57;;;19.60;76.00;;;;;;5089066;28;20924;-81
2023/09/15 10:17:09;;;;;;;14.90;9.60;;;19.70;75.90;;;;;;5089943;28;20452;-80
2023/09/15 10:19:39;;;;;;;12.50;9.10;;;19.70;75.80;;;;;;5111064;28;20451;-79
2023/09/15 10:22:07;;;;;;;14.60;8.80;;;19.80;75.60;;;;;;5108499;28;20448;-79
2023/09/15 10:24:36;;;;;;;12.73;9.50;;;19.90;75.60;;;;;;5104619;28;20455;-80
2023/09/15 10:27:06;;;;;;;11.07;8.20;;;19.90;75.40;;;;;;5109141;28;20954;-80
2023/09/15 10:29:34;;;;;;;12.97;8.70;;;20.00;75.30;;;;;;5093294;28;20460;-80
2023/09/15 10:32:06;;;;;;;13.40;8.37;;;20.00;75.20;;;;;;5091208;28;20847;-79
2023/09/15 10:34:34;;;;;;;13.90;7.70;;;20.10;75.00;;;;;;5110931;28;20473;-80
2023/09/15 10:37:03;;;;;;;12.47;8.03;;;20.20;74.80;;;;;;5092595;28;20452;-81
2023/09/15 10:39:39;;;;;;;13.90;8.40;;;20.20;74.80;;;;;;5108921;28;20470;-79
2023/09/15 10:42:11;;;;;;;12.57;7.93;;;20.30;74.50;;;;;;5112523;28;20508;-81
2023/09/15 10:44:40;;;;;;;12.50;8.87;;;20.40;74.40;;;;;;5112603;28;20451;-77
2023/09/15 10:47:16;;;;;;;11.10;7.10;;;20.40;74.20;;;;;;5107859;27;20513;-78
2023/09/15 10:49:52;;;;;;;11.80;7.87;;;20.50;74.10;;;;;;5108178;28;20456;-78
2023/09/15 10:52:33;;;;;;;12.47;7.40;;;20.50;73.90;;;;;;5101972;28;20490;-78
2023/09/15 10:55:01;;;;;;;11.47;8.27;;;20.60;73.50;;;;;;5107885;28;20543;-78
2023/09/15 10:57:34;;;;;;;12.90;8.10;;;20.60;73.50;;;;;;5107456;28;20840;-78
2023/09/15 11:00:06;;;;;;;13.70;8.40;;;20.60;73.20;;;;;;5106409;28;20466;-78
2023/09/15 11:02:36;;;;;;;13.00;8.00;;;20.60;73.20;;;;;;5106781;28;20459;-77
2023/09/15 11:05:06;;;;;;;10.20;7.20;;;20.70;73.20;;;;;;5105722;28;20458;-79
2023/09/15 11:07:35;;;;;;;10.47;6.10;;;20.70;73.00;;;;;;5108821;28;20986;-78
2023/09/15 11:10:06;;;;;;;11.23;6.63;;;20.80;72.80;;;;;;5103806;28;20460;-79
2023/09/15 11:12:36;;;;;;;9.90;6.40;;;20.90;72.50;;;;;;5109111;28;20528;-77
2023/09/15 11:15:08;;;;;;;10.50;6.00;;;21.00;72.00;;;;;;5108660;28;20451;-78
2023/09/15 11:17:37;;;;;;;15.17;6.93;;;21.00;71.70;;;;;;5089840;28;20552;-77
2023/09/15 11:20:08;;;;;;;11.90;6.43;;;21.10;71.40;;;;;;5109434;28;20478;-79
2023/09/15 11:22:39;;;;;;;11.17;6.17;;;21.10;71.30;;;;;;5086037;28;21078;-78
2023/09/15 11:25:10;;;;;;;11.20;6.33;;;21.10;71.20;;;;;;5108419;28;20455;-78
2023/09/15 11:27:48;;;;;;;8.77;5.57;;;21.20;71.10;;;;;;5107272;28;20822;-78
2023/09/15 11:30:18;;;;;;;8.20;5.73;;;21.20;70.90;;;;;;5102520;28;20463;-76
2023/09/15 11:32:49;;;;;;;9.63;6.80;;;21.30;70.80;;;;;;5108494;28;20516;-80
2023/09/15 11:35:18;;;;;;;11.60;5.40;;;21.30;70.90;;;;;;5104534;28;20456;-79
2023/09/15 11:37:48;;;;;;;9.60;6.20;;;21.40;70.70;;;;;;5107842;28;20448;-75
2023/09/15 11:40:23;;;;;;;9.73;5.60;;;21.40;70.60;;;;;;5104698;28;20539;-78
2023/09/15 11:42:58;;;;;;;9.23;5.60;;;21.50;70.30;;;;;;5104872;28;20848;-80
2023/09/15 11:45:28;;;;;;;9.03;5.80;;;21.50;70.30;;;;;;5105884;28;20463;-78
2023/09/15 11:48:03;;;;;;;8.10;5.30;;;21.50;70.10;;;;;;5106633;28;20535;-79
2023/09/15 11:50:41;;;;;;;7.87;5.10;;;21.60;69.90;;;;;;5105348;28;20470;-76
2023/09/15 11:53:09;;;;;;;8.90;5.60;;;21.60;69.70;;;;;;5089419;28;20472;-80
2023/09/15 11:55:37;;;;;;;8.70;5.40;;;21.70;69.70;;;;;;5089237;28;20460;-79
2023/09/15 11:58:07;;;;;;;8.83;5.63;;;21.80;69.50;;;;;;5107155;28;20456;-77
2023/09/15 12:00:35;;;;;;;8.07;5.03;;;21.80;69.50;;;;;;5105177;28;20463;-77
2023/09/15 12:03:06;;;;;;;18.40;6.33;;;21.90;69.30;;;;;;5109637;28;20485;-78
2023/09/15 12:05:36;;;;;;;8.13;5.57;;;21.90;69.10;;;;;;5106458;28;20546;-78
2023/09/15 12:08:04;;;;;;;9.83;5.43;;;21.90;69.20;;;;;;5108577;28;20450;-75
2023/09/15 12:10:32;;;;;;;8.20;5.27;;;22.00;69.10;;;;;;5106997;28;20509;-78
2023/09/15 12:13:01;;;;;;;8.27;5.60;;;22.00;68.90;;;;;;5106183;28;20475;-77
2023/09/15 12:15:31;;;;;;;9.30;5.57;;;22.10;68.80;;;;;;5107389;28;20471;-78
2023/09/15 12:17:59;;;;;;;9.27;5.47;;;22.10;68.60;;;;;;5109144;28;20853;-78
2023/09/15 12:20:28;;;;;;;8.90;5.73;;;22.10;68.70;;;;;;5105169;28;20981;-77
2023/09/15 12:22:56;;;;;;;11.50;5.73;;;22.20;68.70;;;;;;5103164;28;20452;-78
2023/09/15 12:25:24;;;;;;;7.67;5.53;;;22.20;68.60;;;;;;5105078;28;20459;-79
2023/09/15 12:27:53;;;;;;;11.20;5.60;;;22.20;68.70;;;;;;5104216;28;20456;-77
2023/09/15 12:30:22;;;;;;;9.43;5.83;;;22.30;68.70;;;;;;5102246;28;20456;-79
2023/09/15 12:32:53;;;;;;;7.80;5.60;;;22.30;68.60;;;;;;5107352;28;20472;-79
2023/09/15 12:35:22;;;;;;;12.03;6.50;;;22.40;68.60;;;;;;5101968;28;20488;-78
2023/09/15 12:37:54;;;;;;;10.30;6.40;;;22.40;68.60;;;;;;5097617;28;20459;-79
2023/09/15 12:40:22;;;;;;;11.00;6.33;;;22.50;68.60;;;;;;5106364;28;21240;-77
2023/09/15 12:42:50;;;;;;;10.33;5.50;;;22.50;68.50;;;;;;5100284;28;20505;-79
2023/09/15 12:45:18;;;;;;;11.67;5.97;;;22.50;68.40;;;;;;5105107;28;20509;-79
2023/09/15 12:47:46;;;;;;;10.97;5.90;;;22.50;68.40;;;;;;5104415;28;20450;-77
2023/09/15 12:50:16;;;;;;;10.90;5.60;;;22.60;68.40;;;;;;5105567;28;20452;-78
2023/09/15 12:52:44;;;;;;;9.60;5.63;;;22.70;68.30;;;;;;5104496;28;20479;-80
2023/09/15 12:55:13;;;;;;;8.63;5.93;;;22.70;68.20;;;;;;5106215;28;21185;-76
2023/09/15 12:57:41;;;;;;;8.27;6.20;;;22.80;68.10;;;;;;5104444;28;20464;-80
2023/09/15 13:00:09;;;;;;;9.00;5.80;;;22.80;68.00;;;;;;5088251;28;20448;-80
2023/09/15 13:02:37;;;;;;;9.40;5.60;;;22.80;67.90;;;;;;5104625;28;20501;-77
2023/09/15 13:05:07;;;;;;;8.93;5.93;;;22.90;67.70;;;;;;5106632;28;20443;-75